Time;durP1;ratioP1;P1;durP2;ratioP2;P2;SDS_P1;SDS_P2;PMS_P1;PMS_P2;Temp;Humidity;BMP_temperature;BMP_pressure;BME280_temperature;BME280_humidity;BME280_pressure;Samples;Min_cycle;Max_cycle;Signal;HPM_P1;HPM_P2
2022/01/30 00:00:31;;;;;;;1.9;1.8;;;;;;;6.08;75.52246;95894.2;;;;
2022/01/30 00:01:31;;;;;;;1.9;1.8;;;;;;;6.08;75.52246;95894.2;;;;
2022/01/30 00:02:32;;;;;;;1.9;1.8;;;;;;;6.08;75.52246;95894.2;;;;
2022/01/30 00:03:33;;;;;;;1.9;1.8;;;;;;;6.08;75.52246;95894.2;;;;
2022/01/30 00:04:33;;;;;;;1.9;1.8;;;;;;;6.08;75.52246;95894.2;;;;
2022/01/30 00:05:34;;;;;;;1.9;1.8;;;;;;;6.08;75.52246;95894.2;;;;
2022/01/30 00:06:35;;;;;;;1.9;1.8;;;;;;;6.08;75.52246;95894.2;;;;
2022/01/30 00:07:35;;;;;;;1.9;1.8;;;;;;;6.08;75.52246;95894.2;;;;
2022/01/30 00:08:36;;;;;;;1.9;1.8;;;;;;;6.08;75.52246;95894.2;;;;
2022/01/30 00:09:37;;;;;;;1.9;1.8;;;;;;;6.08;75.52246;95894.2;;;;
2022/01/30 00:10:39;;;;;;;1.9;1.8;;;;;;;6.08;75.52246;95894.2;;;;
2022/01/30 00:11:42;;;;;;;2.3;2.1;;;;;;;6.04;75.98145;95867.47;;;;
2022/01/30 00:12:48;;;;;;;2.3;2.1;;;;;;;6.04;75.98145;95867.47;;;;
2022/01/30 00:13:49;;;;;;;2.3;2.1;;;;;;;6.04;75.98145;95867.47;;;;
2022/01/30 00:14:53;;;;;;;2.3;2.1;;;;;;;6.04;75.98145;95867.47;;;;
2022/01/30 00:15:55;;;;;;;2.3;2.1;;;;;;;6.04;75.98145;95867.47;;;;
2022/01/30 00:17:00;;;;;;;2.3;2.1;;;;;;;6.04;75.98145;95867.47;;;;
2022/01/30 00:18:10;;;;;;;2.3;2.1;;;;;;;6.04;75.98145;95867.47;;;;
2022/01/30 00:19:19;;;;;;;2.3;2.1;;;;;;;6.04;75.98145;95867.47;;;;
2022/01/30 00:20:23;;;;;;;2.3;2.1;;;;;;;6.04;75.98145;95867.47;;;;
2022/01/30 00:21:33;;;;;;;2.3;2.1;;;;;;;6.04;75.98145;95867.47;;;;
2022/01/30 00:22:45;;;;;;;2.1;1.9;;;;;;;6;77.18262;95859.41;;;;
2022/01/30 00:23:50;;;;;;;2.1;1.9;;;;;;;6;77.18262;95859.41;;;;
2022/01/30 00:24:54;;;;;;;2.1;1.9;;;;;;;6;77.18262;95859.41;;;;
2022/01/30 00:25:57;;;;;;;2.1;1.9;;;;;;;6;77.18262;95859.41;;;;
2022/01/30 00:26:58;;;;;;;2.1;1.9;;;;;;;6;77.18262;95859.41;;;;
2022/01/30 00:28:05;;;;;;;2.1;1.9;;;;;;;6;77.18262;95859.41;;;;
2022/01/30 00:29:05;;;;;;;2.1;1.9;;;;;;;6;77.18262;95859.41;;;;
2022/01/30 00:30:08;;;;;;;2.1;1.9;;;;;;;6;77.18262;95859.41;;;;
2022/01/30 00:31:10;;;;;;;2.1;1.9;;;;;;;6;77.18262;95859.41;;;;
2022/01/30 00:32:11;;;;;;;2.1;1.9;;;;;;;6;77.18262;95859.41;;;;
2022/01/30 00:33:11;;;;;;;1.9;1.7;;;;;;;5.97;77.6416;95854.94;;;;
2022/01/30 00:34:12;;;;;;;1.9;1.7;;;;;;;5.97;77.6416;95854.94;;;;
2022/01/30 00:35:12;;;;;;;1.9;1.7;;;;;;;5.97;77.6416;95854.94;;;;
2022/01/30 00:36:13;;;;;;;1.9;1.7;;;;;;;5.97;77.6416;95854.94;;;;
2022/01/30 00:37:14;;;;;;;1.9;1.7;;;;;;;5.97;77.6416;95854.94;;;;
2022/01/30 00:38:18;;;;;;;1.9;1.7;;;;;;;5.97;77.6416;95854.94;;;;
2022/01/30 00:39:18;;;;;;;1.9;1.7;;;;;;;5.97;77.6416;95854.94;;;;
2022/01/30 00:40:19;;;;;;;1.9;1.7;;;;;;;5.97;77.6416;95854.94;;;;
2022/01/30 00:41:19;;;;;;;1.9;1.7;;;;;;;5.97;77.6416;95854.94;;;;
2022/01/30 00:42:22;;;;;;;1.9;1.7;;;;;;;5.97;77.6416;95854.94;;;;
2022/01/30 00:43:22;;;;;;;2.1;1.4;;;;;;;5.98;77.88672;95869.48;;;;
2022/01/30 00:44:23;;;;;;;2.1;1.4;;;;;;;5.98;77.88672;95869.48;;;;
2022/01/30 00:45:23;;;;;;;2.1;1.4;;;;;;;5.98;77.88672;95869.48;;;;
2022/01/30 00:46:24;;;;;;;2.1;1.4;;;;;;;5.98;77.88672;95869.48;;;;
2022/01/30 00:47:24;;;;;;;2.1;1.4;;;;;;;5.98;77.88672;95869.48;;;;
2022/01/30 00:48:25;;;;;;;2.1;1.4;;;;;;;5.98;77.88672;95869.48;;;;
2022/01/30 00:49:26;;;;;;;2.1;1.4;;;;;;;5.98;77.88672;95869.48;;;;
2022/01/30 00:50:27;;;;;;;2.1;1.4;;;;;;;5.98;77.88672;95869.48;;;;
2022/01/30 00:51:28;;;;;;;2.1;1.4;;;;;;;5.98;77.88672;95869.48;;;;
2022/01/30 00:52:28;;;;;;;2.1;1.4;;;;;;;5.98;77.88672;95869.48;;;;
2022/01/30 00:53:29;;;;;;;2.1;1.4;;;;;;;5.98;77.88672;95869.48;;;;
2022/01/30 00:54:29;;;;;;;1.5;1.4;;;;;;;6.01;77.71191;95872.69;;;;
2022/01/30 00:55:30;;;;;;;1.5;1.4;;;;;;;6.01;77.71191;95872.69;;;;
2022/01/30 00:56:32;;;;;;;1.5;1.4;;;;;;;6.01;77.71191;95872.69;;;;
2022/01/30 00:57:32;;;;;;;1.5;1.4;;;;;;;6.01;77.71191;95872.69;;;;
2022/01/30 00:58:33;;;;;;;1.5;1.4;;;;;;;6.01;77.71191;95872.69;;;;
2022/01/30 00:59:33;;;;;;;1.5;1.4;;;;;;;6.01;77.71191;95872.69;;;;
2022/01/30 01:00:34;;;;;;;1.5;1.4;;;;;;;6.01;77.71191;95872.69;;;;
2022/01/30 01:01:35;;;;;;;1.5;1.4;;;;;;;6.01;77.71191;95872.69;;;;
2022/01/30 01:02:35;;;;;;;1.5;1.4;;;;;;;6.01;77.71191;95872.69;;;;
2022/01/30 01:03:36;;;;;;;1.5;1.4;;;;;;;6.01;77.71191;95872.69;;;;
2022/01/30 01:04:36;;;;;;;1.7;1.35;;;;;;;6;77.88965;95859.91;;;;
2022/01/30 01:05:38;;;;;;;1.7;1.35;;;;;;;6;77.88965;95859.91;;;;
2022/01/30 01:06:40;;;;;;;1.7;1.35;;;;;;;6;77.88965;95859.91;;;;
2022/01/30 01:07:43;;;;;;;1.7;1.35;;;;;;;6;77.88965;95859.91;;;;
2022/01/30 01:08:49;;;;;;;1.7;1.35;;;;;;;6;77.88965;95859.91;;;;
2022/01/30 01:09:59;;;;;;;1.7;1.35;;;;;;;6;77.88965;95859.91;;;;
2022/01/30 01:11:14;;;;;;;1.7;1.35;;;;;;;6;77.88965;95859.91;;;;
2022/01/30 01:13:01;;;;;;;1.7;1.35;;;;;;;6;77.88965;95859.91;;;;
2022/01/30 01:20:49;;;;;;;1.7;1.35;;;;;;;6;77.88965;95859.91;;;;
2022/01/30 01:27:01;;;;;;;1.55;1.45;;;;;;;6.02;78.62305;95859.2;;;;
2022/01/30 01:28:02;;;;;;;1.55;1.45;;;;;;;6.02;78.62305;95859.2;;;;
2022/01/30 01:29:03;;;;;;;1.55;1.45;;;;;;;6.02;78.62305;95859.2;;;;
2022/01/30 01:30:05;;;;;;;1.55;1.45;;;;;;;6.02;78.62305;95859.2;;;;
2022/01/30 01:31:07;;;;;;;1.55;1.45;;;;;;;6.02;78.62305;95859.2;;;;
2022/01/30 01:32:07;;;;;;;1.55;1.45;;;;;;;6.02;78.62305;95859.2;;;;
2022/01/30 01:33:08;;;;;;;1.55;1.45;;;;;;;6.02;78.62305;95859.2;;;;
2022/01/30 01:34:25;;;;;;;1.55;1.45;;;;;;;6.02;78.62305;95859.2;;;;
2022/01/30 01:35:25;;;;;;;1.55;1.45;;;;;;;6.02;78.62305;95859.2;;;;
2022/01/30 01:36:26;;;;;;;1.25;1.15;;;;;;;6.07;78.94824;95863.05;;;;
2022/01/30 01:37:27;;;;;;;1.25;1.15;;;;;;;6.07;78.94824;95863.05;;;;
2022/01/30 01:38:28;;;;;;;1.25;1.15;;;;;;;6.07;78.94824;95863.05;;;;
2022/01/30 01:39:28;;;;;;;1.25;1.15;;;;;;;6.07;78.94824;95863.05;;;;
2022/01/30 01:40:29;;;;;;;1.25;1.15;;;;;;;6.07;78.94824;95863.05;;;;
2022/01/30 01:41:32;;;;;;;1.25;1.15;;;;;;;6.07;78.94824;95863.05;;;;
2022/01/30 01:42:35;;;;;;;1.25;1.15;;;;;;;6.07;78.94824;95863.05;;;;
2022/01/30 01:43:36;;;;;;;1.25;1.15;;;;;;;6.07;78.94824;95863.05;;;;
2022/01/30 01:44:41;;;;;;;1.25;1.15;;;;;;;6.07;78.94824;95863.05;;;;
2022/01/30 01:45:42;;;;;;;1.25;1.15;;;;;;;6.07;78.94824;95863.05;;;;
2022/01/30 01:46:43;;;;;;;1.25;1.15;;;;;;;6.07;78.94824;95863.05;;;;
2022/01/30 01:47:44;;;;;;;1.2;1.1;;;;;;;6.09;78.91113;95867.21;;;;
2022/01/30 01:48:45;;;;;;;1.2;1.1;;;;;;;6.09;78.91113;95867.21;;;;
2022/01/30 01:49:49;;;;;;;1.2;1.1;;;;;;;6.09;78.91113;95867.21;;;;
2022/01/30 01:50:53;;;;;;;1.2;1.1;;;;;;;6.09;78.91113;95867.21;;;;
2022/01/30 01:52:14;;;;;;;1.2;1.1;;;;;;;6.09;78.91113;95867.21;;;;
2022/01/30 01:53:14;;;;;;;1.2;1.1;;;;;;;6.09;78.91113;95867.21;;;;
2022/01/30 01:54:15;;;;;;;1.2;1.1;;;;;;;6.09;78.91113;95867.21;;;;
2022/01/30 01:55:16;;;;;;;1.2;1.1;;;;;;;6.09;78.91113;95867.21;;;;
2022/01/30 01:56:16;;;;;;;1.2;1.1;;;;;;;6.09;78.91113;95867.21;;;;
2022/01/30 01:57:18;;;;;;;1.2;1.1;;;;;;;6.09;78.91113;95867.21;;;;
2022/01/30 01:58:20;;;;;;;1.25;1.15;;;;;;;6.07;79.00293;95866.99;;;;
2022/01/30 01:59:23;;;;;;;1.25;1.15;;;;;;;6.07;79.00293;95866.99;;;;
2022/01/30 02:00:23;;;;;;;1.25;1.15;;;;;;;6.07;79.00293;95866.99;;;;
2022/01/30 02:01:26;;;;;;;1.25;1.15;;;;;;;6.07;79.00293;95866.99;;;;
2022/01/30 02:02:27;;;;;;;1.25;1.15;;;;;;;6.07;79.00293;95866.99;;;;
2022/01/30 02:03:28;;;;;;;1.25;1.15;;;;;;;6.07;79.00293;95866.99;;;;
2022/01/30 02:04:29;;;;;;;1.25;1.15;;;;;;;6.07;79.00293;95866.99;;;;
2022/01/30 02:05:32;;;;;;;1.25;1.15;;;;;;;6.07;79.00293;95866.99;;;;
2022/01/30 02:06:33;;;;;;;1.25;1.15;;;;;;;6.07;79.00293;95866.99;;;;
2022/01/30 02:08:04;;;;;;;1.25;1.15;;;;;;;6.07;79.00293;95866.99;;;;
2022/01/30 02:09:09;;;;;;;1.2;1.1;;;;;;;6.06;79.27441;95814.9;;;;
2022/01/30 02:10:17;;;;;;;1.2;1.1;;;;;;;6.06;79.27441;95814.9;;;;
2022/01/30 02:11:30;;;;;;;1.2;1.1;;;;;;;6.06;79.27441;95814.9;;;;
2022/01/30 02:12:45;;;;;;;1.2;1.1;;;;;;;6.06;79.27441;95814.9;;;;
2022/01/30 02:14:01;;;;;;;1.2;1.1;;;;;;;6.06;79.27441;95814.9;;;;
2022/01/30 02:15:15;;;;;;;1.2;1.1;;;;;;;6.06;79.27441;95814.9;;;;
2022/01/30 02:26:41;;;;;;;1.3;1.2;;;;;;;6.03;79.3877;95797.36;;;;
2022/01/30 02:27:44;;;;;;;1.3;1.2;;;;;;;6.03;79.3877;95797.36;;;;
2022/01/30 02:28:44;;;;;;;1.3;1.2;;;;;;;6.03;79.3877;95797.36;;;;
2022/01/30 02:29:45;;;;;;;1.7;1.15;;;;;;;6.01;79.49902;95815.48;;;;
2022/01/30 02:30:53;;;;;;;1.7;1.15;;;;;;;6.01;79.49902;95815.48;;;;
2022/01/30 02:31:56;;;;;;;1.7;1.15;;;;;;;6.01;79.49902;95815.48;;;;
2022/01/30 02:32:57;;;;;;;1.7;1.15;;;;;;;6.01;79.49902;95815.48;;;;
2022/01/30 02:33:58;;;;;;;1.7;1.15;;;;;;;6.01;79.49902;95815.48;;;;
2022/01/30 02:34:58;;;;;;;1.7;1.15;;;;;;;6.01;79.49902;95815.48;;;;
2022/01/30 02:35:59;;;;;;;1.7;1.15;;;;;;;6.01;79.49902;95815.48;;;;
2022/01/30 02:37:00;;;;;;;1.7;1.15;;;;;;;6.01;79.49902;95815.48;;;;
2022/01/30 02:38:02;;;;;;;1.7;1.15;;;;;;;6.01;79.49902;95815.48;;;;
2022/01/30 02:39:03;;;;;;;1.7;1.15;;;;;;;6.01;79.49902;95815.48;;;;
2022/01/30 02:40:04;;;;;;;1.7;1.15;;;;;;;6.01;79.49902;95815.48;;;;
2022/01/30 02:41:06;;;;;;;1;1;;;;;;;6;79.55176;95798.68;;;;
2022/01/30 02:42:07;;;;;;;1;1;;;;;;;6;79.55176;95798.68;;;;
2022/01/30 02:43:08;;;;;;;1;1;;;;;;;6;79.55176;95798.68;;;;
2022/01/30 02:44:14;;;;;;;1;1;;;;;;;6;79.55176;95798.68;;;;
2022/01/30 02:45:17;;;;;;;1;1;;;;;;;6;79.55176;95798.68;;;;
2022/01/30 02:46:25;;;;;;;1;1;;;;;;;6;79.55176;95798.68;;;;
2022/01/30 02:47:39;;;;;;;1;1;;;;;;;6;79.55176;95798.68;;;;
2022/01/30 02:48:47;;;;;;;1;1;;;;;;;6;79.55176;95798.68;;;;
2022/01/30 02:50:09;;;;;;;1;1;;;;;;;6;79.55176;95798.68;;;;
2022/01/30 02:51:12;;;;;;;0.9;0.9;;;;;;;5.96;79.42676;95796.48;;;;
2022/01/30 02:52:15;;;;;;;0.9;0.9;;;;;;;5.96;79.42676;95796.48;;;;
2022/01/30 02:53:15;;;;;;;0.9;0.9;;;;;;;5.96;79.42676;95796.48;;;;
2022/01/30 02:54:16;;;;;;;0.9;0.9;;;;;;;5.96;79.42676;95796.48;;;;
2022/01/30 02:55:18;;;;;;;0.9;0.9;;;;;;;5.96;79.42676;95796.48;;;;
2022/01/30 02:56:18;;;;;;;0.9;0.9;;;;;;;5.96;79.42676;95796.48;;;;
2022/01/30 02:57:18;;;;;;;0.9;0.9;;;;;;;5.96;79.42676;95796.48;;;;
2022/01/30 02:58:19;;;;;;;0.9;0.9;;;;;;;5.96;79.42676;95796.48;;;;
2022/01/30 02:59:20;;;;;;;0.9;0.9;;;;;;;5.96;79.42676;95796.48;;;;
2022/01/30 03:00:21;;;;;;;0.9;0.9;;;;;;;5.96;79.42676;95796.48;;;;
2022/01/30 03:01:22;;;;;;;0.9;0.9;;;;;;;5.96;79.42676;95796.48;;;;
2022/01/30 03:02:23;;;;;;;1.3;1.1;;;;;;;5.9;79.66992;95790.13;;;;
2022/01/30 03:03:23;;;;;;;1.3;1.1;;;;;;;5.9;79.66992;95790.13;;;;
2022/01/30 03:04:23;;;;;;;1.3;1.1;;;;;;;5.9;79.66992;95790.13;;;;
2022/01/30 03:05:24;;;;;;;1.3;1.1;;;;;;;5.9;79.66992;95790.13;;;;
2022/01/30 03:06:24;;;;;;;1.3;1.1;;;;;;;5.9;79.66992;95790.13;;;;
2022/01/30 03:07:25;;;;;;;1.3;1.1;;;;;;;5.9;79.66992;95790.13;;;;
2022/01/30 03:08:26;;;;;;;1.3;1.1;;;;;;;5.9;79.66992;95790.13;;;;
2022/01/30 03:09:26;;;;;;;1.3;1.1;;;;;;;5.9;79.66992;95790.13;;;;
2022/01/30 03:10:27;;;;;;;1.3;1.1;;;;;;;5.9;79.66992;95790.13;;;;
2022/01/30 03:11:27;;;;;;;1.3;1.1;;;;;;;5.9;79.66992;95790.13;;;;
2022/01/30 03:12:28;;;;;;;1.3;1.2;;;;;;;5.86;79.97852;95781.35;;;;
2022/01/30 03:13:28;;;;;;;1.3;1.2;;;;;;;5.86;79.97852;95781.35;;;;
2022/01/30 03:14:29;;;;;;;1.3;1.2;;;;;;;5.86;79.97852;95781.35;;;;
2022/01/30 03:15:30;;;;;;;1.3;1.2;;;;;;;5.86;79.97852;95781.35;;;;
2022/01/30 03:16:30;;;;;;;1.3;1.2;;;;;;;5.86;79.97852;95781.35;;;;
2022/01/30 03:17:32;;;;;;;1.3;1.2;;;;;;;5.86;79.97852;95781.35;;;;
2022/01/30 03:18:32;;;;;;;1.3;1.2;;;;;;;5.86;79.97852;95781.35;;;;
2022/01/30 03:19:33;;;;;;;1.3;1.2;;;;;;;5.86;79.97852;95781.35;;;;
2022/01/30 03:20:33;;;;;;;1.3;1.2;;;;;;;5.86;79.97852;95781.35;;;;
2022/01/30 03:21:34;;;;;;;1.3;1.2;;;;;;;5.86;79.97852;95781.35;;;;
2022/01/30 03:22:34;;;;;;;1.3;1.2;;;;;;;5.86;79.97852;95781.35;;;;
2022/01/30 03:23:37;;;;;;;1.3;1.2;;;;;;;5.78;79.99609;95786.72;;;;
2022/01/30 03:24:38;;;;;;;1.3;1.2;;;;;;;5.78;79.99609;95786.72;;;;
2022/01/30 03:25:39;;;;;;;1.3;1.2;;;;;;;5.78;79.99609;95786.72;;;;
2022/01/30 03:26:40;;;;;;;1.3;1.2;;;;;;;5.78;79.99609;95786.72;;;;
2022/01/30 03:27:41;;;;;;;1.3;1.2;;;;;;;5.78;79.99609;95786.72;;;;
2022/01/30 03:28:44;;;;;;;1.3;1.2;;;;;;;5.78;79.99609;95786.72;;;;
2022/01/30 03:29:50;;;;;;;1.3;1.2;;;;;;;5.78;79.99609;95786.72;;;;
2022/01/30 03:30:55;;;;;;;1.3;1.2;;;;;;;5.78;79.99609;95786.72;;;;
2022/01/30 03:31:55;;;;;;;1.3;1.2;;;;;;;5.78;79.99609;95786.72;;;;
2022/01/30 03:32:56;;;;;;;1.3;1.2;;;;;;;5.78;79.99609;95786.72;;;;
2022/01/30 03:33:57;;;;;;;1.5;1.2;;;;;;;5.8;80.46387;95806.53;;;;
2022/01/30 03:34:57;;;;;;;1.5;1.2;;;;;;;5.8;80.46387;95806.53;;;;
2022/01/30 03:35:58;;;;;;;1.5;1.2;;;;;;;5.8;80.46387;95806.53;;;;
2022/01/30 03:37:00;;;;;;;1.5;1.2;;;;;;;5.8;80.46387;95806.53;;;;
2022/01/30 03:38:00;;;;;;;1.5;1.2;;;;;;;5.8;80.46387;95806.53;;;;
2022/01/30 03:39:01;;;;;;;1.5;1.2;;;;;;;5.8;80.46387;95806.53;;;;
2022/01/30 03:40:03;;;;;;;1.5;1.2;;;;;;;5.8;80.46387;95806.53;;;;
2022/01/30 03:41:05;;;;;;;1.5;1.2;;;;;;;5.8;80.46387;95806.53;;;;
2022/01/30 03:42:05;;;;;;;1.5;1.2;;;;;;;5.8;80.46387;95806.53;;;;
2022/01/30 03:43:07;;;;;;;1.5;1.2;;;;;;;5.8;80.46387;95806.53;;;;
2022/01/30 03:44:08;;;;;;;1.5;1.2;;;;;;;5.8;80.46387;95806.53;;;;
2022/01/30 03:45:08;;;;;;;1.35;1.25;;;;;;;5.76;80.38281;95807.51;;;;
2022/01/30 03:46:09;;;;;;;1.35;1.25;;;;;;;5.76;80.38281;95807.51;;;;
2022/01/30 03:47:10;;;;;;;1.35;1.25;;;;;;;5.76;80.38281;95807.51;;;;
2022/01/30 03:48:12;;;;;;;1.35;1.25;;;;;;;5.76;80.38281;95807.51;;;;
2022/01/30 03:49:14;;;;;;;1.35;1.25;;;;;;;5.76;80.38281;95807.51;;;;
2022/01/30 03:50:14;;;;;;;1.35;1.25;;;;;;;5.76;80.38281;95807.51;;;;
2022/01/30 03:51:15;;;;;;;1.35;1.25;;;;;;;5.76;80.38281;95807.51;;;;
2022/01/30 03:52:16;;;;;;;1.35;1.25;;;;;;;5.76;80.38281;95807.51;;;;
2022/01/30 03:53:17;;;;;;;1.35;1.25;;;;;;;5.76;80.38281;95807.51;;;;
2022/01/30 03:54:17;;;;;;;1.35;1.25;;;;;;;5.76;80.38281;95807.51;;;;
2022/01/30 03:55:18;;;;;;;1.4;1.3;;;;;;;5.71;80.78516;95809.95;;;;
2022/01/30 03:56:18;;;;;;;1.4;1.3;;;;;;;5.71;80.78516;95809.95;;;;
2022/01/30 03:57:19;;;;;;;1.4;1.3;;;;;;;5.71;80.78516;95809.95;;;;
2022/01/30 03:58:19;;;;;;;1.4;1.3;;;;;;;5.71;80.78516;95809.95;;;;
2022/01/30 03:59:20;;;;;;;1.4;1.3;;;;;;;5.71;80.78516;95809.95;;;;
2022/01/30 04:00:21;;;;;;;1.4;1.3;;;;;;;5.71;80.78516;95809.95;;;;
2022/01/30 04:01:22;;;;;;;1.4;1.3;;;;;;;5.71;80.78516;95809.95;;;;
2022/01/30 04:02:22;;;;;;;1.4;1.3;;;;;;;5.71;80.78516;95809.95;;;;
2022/01/30 04:03:23;;;;;;;1.4;1.3;;;;;;;5.71;80.78516;95809.95;;;;
2022/01/30 04:04:23;;;;;;;1.4;1.3;;;;;;;5.71;80.78516;95809.95;;;;
2022/01/30 04:05:24;;;;;;;1.4;1.3;;;;;;;5.71;80.78516;95809.95;;;;
2022/01/30 04:06:25;;;;;;;1.5;1.4;;;;;;;5.62;80.86426;95821.83;;;;
2022/01/30 04:07:26;;;;;;;1.5;1.4;;;;;;;5.62;80.86426;95821.83;;;;
2022/01/30 04:08:27;;;;;;;1.5;1.4;;;;;;;5.62;80.86426;95821.83;;;;
2022/01/30 04:09:28;;;;;;;1.5;1.4;;;;;;;5.62;80.86426;95821.83;;;;
2022/01/30 04:10:28;;;;;;;1.5;1.4;;;;;;;5.62;80.86426;95821.83;;;;
2022/01/30 04:11:30;;;;;;;1.5;1.4;;;;;;;5.62;80.86426;95821.83;;;;
2022/01/30 04:12:30;;;;;;;1.5;1.4;;;;;;;5.62;80.86426;95821.83;;;;
2022/01/30 04:13:32;;;;;;;1.5;1.4;;;;;;;5.62;80.86426;95821.83;;;;
2022/01/30 04:14:32;;;;;;;1.5;1.4;;;;;;;5.62;80.86426;95821.83;;;;
2022/01/30 04:15:33;;;;;;;1.5;1.4;;;;;;;5.62;80.86426;95821.83;;;;
2022/01/30 04:16:35;;;;;;;1.9;1.5;;;;;;;5.6;80.90039;95822.11;;;;
2022/01/30 04:17:36;;;;;;;1.9;1.5;;;;;;;5.6;80.90039;95822.11;;;;
2022/01/30 04:18:37;;;;;;;1.9;1.5;;;;;;;5.6;80.90039;95822.11;;;;
2022/01/30 04:19:38;;;;;;;1.9;1.5;;;;;;;5.6;80.90039;95822.11;;;;
2022/01/30 04:20:39;;;;;;;1.9;1.5;;;;;;;5.6;80.90039;95822.11;;;;
2022/01/30 04:21:40;;;;;;;1.9;1.5;;;;;;;5.6;80.90039;95822.11;;;;
2022/01/30 04:22:41;;;;;;;1.9;1.5;;;;;;;5.6;80.90039;95822.11;;;;
2022/01/30 04:23:41;;;;;;;1.9;1.5;;;;;;;5.6;80.90039;95822.11;;;;
2022/01/30 04:24:42;;;;;;;1.9;1.5;;;;;;;5.6;80.90039;95822.11;;;;
2022/01/30 04:25:42;;;;;;;1.9;1.5;;;;;;;5.6;80.90039;95822.11;;;;
2022/01/30 04:26:44;;;;;;;1.9;1.5;;;;;;;5.6;80.90039;95822.11;;;;
2022/01/30 04:27:44;;;;;;;2.2;1.4;;;;;;;5.59;80.92188;95832.51;;;;
2022/01/30 04:28:46;;;;;;;2.2;1.4;;;;;;;5.59;80.92188;95832.51;;;;
2022/01/30 04:29:46;;;;;;;2.2;1.4;;;;;;;5.59;80.92188;95832.51;;;;
2022/01/30 04:30:47;;;;;;;2.2;1.4;;;;;;;5.59;80.92188;95832.51;;;;
2022/01/30 04:31:49;;;;;;;2.2;1.4;;;;;;;5.59;80.92188;95832.51;;;;
2022/01/30 04:32:51;;;;;;;2.2;1.4;;;;;;;5.59;80.92188;95832.51;;;;
2022/01/30 04:33:52;;;;;;;2.2;1.4;;;;;;;5.59;80.92188;95832.51;;;;
2022/01/30 04:34:57;;;;;;;2.2;1.4;;;;;;;5.59;80.92188;95832.51;;;;
2022/01/30 04:35:58;;;;;;;2.2;1.4;;;;;;;5.59;80.92188;95832.51;;;;
2022/01/30 04:37:04;;;;;;;2.2;1.4;;;;;;;5.59;80.92188;95832.51;;;;
2022/01/30 04:38:16;;;;;;;2.6;1.6;;;;;;;5.63;81.15234;95822.55;;;;
2022/01/30 04:39:33;;;;;;;2.6;1.6;;;;;;;5.63;81.15234;95822.55;;;;
2022/01/30 04:41:03;;;;;;;2.6;1.6;;;;;;;5.63;81.15234;95822.55;;;;
2022/01/30 04:42:23;;;;;;;2.6;1.6;;;;;;;5.63;81.15234;95822.55;;;;
2022/01/30 04:54:25;;;;;;;2.55;1.7;;;;;;;5.62;81.28613;95833.46;;;;
2022/01/30 04:56:21;;;;;;;2.55;1.7;;;;;;;5.62;81.28613;95833.46;;;;
2022/01/30 04:57:39;;;;;;;2.55;1.7;;;;;;;5.62;81.28613;95833.46;;;;
2022/01/30 04:58:52;;;;;;;2.55;1.7;;;;;;;5.62;81.28613;95833.46;;;;
2022/01/30 05:00:07;;;;;;;2.55;1.95;;;;;;;5.47;81.67969;95839.79;;;;
2022/01/30 05:01:15;;;;;;;2.55;1.95;;;;;;;5.47;81.67969;95839.79;;;;
2022/01/30 05:02:37;;;;;;;2.55;1.95;;;;;;;5.47;81.67969;95839.79;;;;
2022/01/30 05:03:52;;;;;;;2.55;1.95;;;;;;;5.47;81.67969;95839.79;;;;
2022/01/30 05:05:07;;;;;;;2.55;1.95;;;;;;;5.47;81.67969;95839.79;;;;
2022/01/30 05:06:12;;;;;;;2.55;1.95;;;;;;;5.47;81.67969;95839.79;;;;
2022/01/30 05:07:30;;;;;;;2.55;1.95;;;;;;;5.47;81.67969;95839.79;;;;
2022/01/30 05:08:31;;;;;;;2.55;1.95;;;;;;;5.47;81.67969;95839.79;;;;
2022/01/30 05:09:32;;;;;;;2.55;1.95;;;;;;;5.47;81.67969;95839.79;;;;
2022/01/30 05:10:33;;;;;;;2.25;2.05;;;;;;;5.33;82.48633;95868.38;;;;
2022/01/30 05:11:33;;;;;;;2.25;2.05;;;;;;;5.33;82.48633;95868.38;;;;
2022/01/30 05:12:41;;;;;;;2.25;2.05;;;;;;;5.33;82.48633;95868.38;;;;
2022/01/30 05:13:47;;;;;;;2.25;2.05;;;;;;;5.33;82.48633;95868.38;;;;
2022/01/30 05:14:48;;;;;;;2.25;2.05;;;;;;;5.33;82.48633;95868.38;;;;
2022/01/30 05:15:49;;;;;;;2.25;2.05;;;;;;;5.33;82.48633;95868.38;;;;
2022/01/30 05:16:50;;;;;;;2.25;2.05;;;;;;;5.33;82.48633;95868.38;;;;
2022/01/30 05:17:51;;;;;;;2.25;2.05;;;;;;;5.33;82.48633;95868.38;;;;
2022/01/30 05:18:52;;;;;;;2.25;2.05;;;;;;;5.33;82.48633;95868.38;;;;
2022/01/30 05:19:53;;;;;;;2.25;2.05;;;;;;;5.33;82.48633;95868.38;;;;
2022/01/30 05:20:54;;;;;;;2.8;2.2;;;;;;;5.39;83.2041;95868.97;;;;
2022/01/30 05:21:55;;;;;;;2.8;2.2;;;;;;;5.39;83.2041;95868.97;;;;
2022/01/30 05:22:57;;;;;;;2.8;2.2;;;;;;;5.39;83.2041;95868.97;;;;
2022/01/30 05:23:58;;;;;;;2.8;2.2;;;;;;;5.39;83.2041;95868.97;;;;
2022/01/30 05:24:59;;;;;;;2.8;2.2;;;;;;;5.39;83.2041;95868.97;;;;
2022/01/30 05:26:00;;;;;;;2.8;2.2;;;;;;;5.39;83.2041;95868.97;;;;
2022/01/30 05:27:07;;;;;;;2.8;2.2;;;;;;;5.39;83.2041;95868.97;;;;
2022/01/30 05:28:09;;;;;;;2.8;2.2;;;;;;;5.39;83.2041;95868.97;;;;
2022/01/30 05:29:10;;;;;;;2.8;2.2;;;;;;;5.39;83.2041;95868.97;;;;
2022/01/30 05:30:11;;;;;;;2.8;2.2;;;;;;;5.39;83.2041;95868.97;;;;
2022/01/30 05:31:12;;;;;;;2.849999;2.2;;;;;;;5.43;83.18066;95877.37;;;;
2022/01/30 05:32:13;;;;;;;2.849999;2.2;;;;;;;5.43;83.18066;95877.37;;;;
2022/01/30 05:33:14;;;;;;;2.849999;2.2;;;;;;;5.43;83.18066;95877.37;;;;
2022/01/30 05:34:15;;;;;;;2.849999;2.2;;;;;;;5.43;83.18066;95877.37;;;;
2022/01/30 05:35:16;;;;;;;2.849999;2.2;;;;;;;5.43;83.18066;95877.37;;;;
2022/01/30 05:36:17;;;;;;;2.849999;2.2;;;;;;;5.43;83.18066;95877.37;;;;
2022/01/30 05:37:20;;;;;;;2.849999;2.2;;;;;;;5.43;83.18066;95877.37;;;;
2022/01/30 05:38:21;;;;;;;2.849999;2.2;;;;;;;5.43;83.18066;95877.37;;;;
2022/01/30 05:39:23;;;;;;;2.849999;2.2;;;;;;;5.43;83.18066;95877.37;;;;
2022/01/30 05:40:24;;;;;;;2.849999;2.2;;;;;;;5.43;83.18066;95877.37;;;;
2022/01/30 05:41:25;;;;;;;2.849999;2.2;;;;;;;5.43;83.18066;95877.37;;;;
2022/01/30 05:42:28;;;;;;;3.9;2.45;;;;;;;5.46;83.6084;95886.86;;;;
2022/01/30 05:43:31;;;;;;;3.9;2.45;;;;;;;5.46;83.6084;95886.86;;;;
2022/01/30 05:44:43;;;;;;;3.9;2.45;;;;;;;5.46;83.6084;95886.86;;;;
2022/01/30 05:45:48;;;;;;;3.9;2.45;;;;;;;5.46;83.6084;95886.86;;;;
2022/01/30 05:46:54;;;;;;;3.9;2.45;;;;;;;5.46;83.6084;95886.86;;;;
2022/01/30 05:47:58;;;;;;;3.9;2.45;;;;;;;5.46;83.6084;95886.86;;;;
2022/01/30 05:48:59;;;;;;;3.9;2.45;;;;;;;5.46;83.6084;95886.86;;;;
2022/01/30 05:50:02;;;;;;;3.9;2.45;;;;;;;5.46;83.6084;95886.86;;;;
2022/01/30 05:51:04;;;;;;;3.9;2.45;;;;;;;5.46;83.6084;95886.86;;;;
2022/01/30 05:52:04;;;;;;;3.9;2.45;;;;;;;5.46;83.6084;95886.86;;;;
2022/01/30 05:53:06;;;;;;;3.05;2.75;;;;;;;5.4;84.10156;95888.02;;;;
2022/01/30 05:54:06;;;;;;;3.05;2.75;;;;;;;5.4;84.10156;95888.02;;;;
2022/01/30 05:55:07;;;;;;;3.05;2.75;;;;;;;5.4;84.10156;95888.02;;;;
2022/01/30 05:56:11;;;;;;;3.05;2.75;;;;;;;5.4;84.10156;95888.02;;;;
2022/01/30 05:57:11;;;;;;;3.05;2.75;;;;;;;5.4;84.10156;95888.02;;;;
2022/01/30 05:58:12;;;;;;;3.05;2.75;;;;;;;5.4;84.10156;95888.02;;;;
2022/01/30 05:59:12;;;;;;;3.05;2.75;;;;;;;5.4;84.10156;95888.02;;;;
2022/01/30 06:00:14;;;;;;;3.05;2.75;;;;;;;5.4;84.10156;95888.02;;;;
2022/01/30 06:01:16;;;;;;;3.05;2.75;;;;;;;5.4;84.10156;95888.02;;;;
2022/01/30 06:02:16;;;;;;;3.05;2.75;;;;;;;5.4;84.10156;95888.02;;;;
2022/01/30 06:03:17;;;;;;;3.6;2.9;;;;;;;5.37;83.96973;95914.69;;;;
2022/01/30 06:04:18;;;;;;;3.6;2.9;;;;;;;5.37;83.96973;95914.69;;;;
2022/01/30 06:05:21;;;;;;;3.6;2.9;;;;;;;5.37;83.96973;95914.69;;;;
2022/01/30 06:06:21;;;;;;;3.6;2.9;;;;;;;5.37;83.96973;95914.69;;;;
2022/01/30 06:07:27;;;;;;;3.6;2.9;;;;;;;5.37;83.96973;95914.69;;;;
2022/01/30 06:08:40;;;;;;;3.6;2.9;;;;;;;5.37;83.96973;95914.69;;;;
2022/01/30 06:09:41;;;;;;;3.6;2.9;;;;;;;5.37;83.96973;95914.69;;;;
2022/01/30 06:10:41;;;;;;;3.6;2.9;;;;;;;5.37;83.96973;95914.69;;;;
2022/01/30 06:11:42;;;;;;;3.6;2.9;;;;;;;5.37;83.96973;95914.69;;;;
2022/01/30 06:12:42;;;;;;;3.6;2.9;;;;;;;5.37;83.96973;95914.69;;;;
2022/01/30 06:13:43;;;;;;;4.75;3.45;;;;;;;5.31;84.62402;95905.14;;;;
2022/01/30 06:14:45;;;;;;;4.75;3.45;;;;;;;5.31;84.62402;95905.14;;;;
2022/01/30 06:15:46;;;;;;;4.75;3.45;;;;;;;5.31;84.62402;95905.14;;;;
2022/01/30 06:16:47;;;;;;;4.75;3.45;;;;;;;5.31;84.62402;95905.14;;;;
2022/01/30 06:17:48;;;;;;;4.75;3.45;;;;;;;5.31;84.62402;95905.14;;;;
2022/01/30 06:18:49;;;;;;;4.75;3.45;;;;;;;5.31;84.62402;95905.14;;;;
2022/01/30 06:19:49;;;;;;;4.75;3.45;;;;;;;5.31;84.62402;95905.14;;;;
2022/01/30 06:20:50;;;;;;;4.75;3.45;;;;;;;5.31;84.62402;95905.14;;;;
2022/01/30 06:21:50;;;;;;;4.75;3.45;;;;;;;5.31;84.62402;95905.14;;;;
2022/01/30 06:22:51;;;;;;;4.75;3.45;;;;;;;5.31;84.62402;95905.14;;;;
2022/01/30 06:23:52;;;;;;;4.75;3.45;;;;;;;5.31;84.62402;95905.14;;;;
2022/01/30 06:24:52;;;;;;;4.35;3.85;;;;;;;5.19;84.9248;95898.71;;;;
2022/01/30 06:25:53;;;;;;;4.35;3.85;;;;;;;5.19;84.9248;95898.71;;;;
2022/01/30 06:26:54;;;;;;;4.35;3.85;;;;;;;5.19;84.9248;95898.71;;;;
2022/01/30 06:27:54;;;;;;;4.35;3.85;;;;;;;5.19;84.9248;95898.71;;;;
2022/01/30 06:28:55;;;;;;;4.35;3.85;;;;;;;5.19;84.9248;95898.71;;;;
2022/01/30 06:29:55;;;;;;;4.35;3.85;;;;;;;5.19;84.9248;95898.71;;;;
2022/01/30 06:30:56;;;;;;;4.35;3.85;;;;;;;5.19;84.9248;95898.71;;;;
2022/01/30 06:31:57;;;;;;;4.35;3.85;;;;;;;5.19;84.9248;95898.71;;;;
2022/01/30 06:32:57;;;;;;;4.35;3.85;;;;;;;5.19;84.9248;95898.71;;;;
2022/01/30 06:33:57;;;;;;;4.35;3.85;;;;;;;5.19;84.9248;95898.71;;;;
2022/01/30 06:34:58;;;;;;;4.35;3.85;;;;;;;5.19;84.9248;95898.71;;;;
2022/01/30 06:35:59;;;;;;;4.6;3.95;;;;;;;5.07;86.42969;95904.11;;;;
2022/01/30 06:36:59;;;;;;;4.6;3.95;;;;;;;5.07;86.42969;95904.11;;;;
2022/01/30 06:38:00;;;;;;;4.6;3.95;;;;;;;5.07;86.42969;95904.11;;;;
2022/01/30 06:39:01;;;;;;;4.6;3.95;;;;;;;5.07;86.42969;95904.11;;;;
2022/01/30 06:40:02;;;;;;;4.6;3.95;;;;;;;5.07;86.42969;95904.11;;;;
2022/01/30 06:41:03;;;;;;;4.6;3.95;;;;;;;5.07;86.42969;95904.11;;;;
2022/01/30 06:42:04;;;;;;;4.6;3.95;;;;;;;5.07;86.42969;95904.11;;;;
2022/01/30 06:43:06;;;;;;;4.6;3.95;;;;;;;5.07;86.42969;95904.11;;;;
2022/01/30 06:44:08;;;;;;;4.6;3.95;;;;;;;5.07;86.42969;95904.11;;;;